createdAt,value
2023-03-23T15:58:29.564Z,1.50
2023-03-23T16:00:59.035Z,1.92
2023-03-23T16:03:31.405Z,1.80
2023-03-23T16:06:03.175Z,2.10
2023-03-23T16:08:30.933Z,1.30
2023-03-23T16:11:00.065Z,1.70
2023-03-23T16:13:27.854Z,1.45
2023-03-23T16:15:56.030Z,1.38
2023-03-23T16:18:23.928Z,1.90
2023-03-23T16:20:52.930Z,2.13
2023-03-23T16:23:21.055Z,1.52
2023-03-23T16:25:48.901Z,1.30
2023-03-23T16:28:17.054Z,1.77
2023-03-23T16:30:45.746Z,1.40
2023-03-23T16:33:13.622Z,1.67
2023-03-23T16:35:42.705Z,1.30
2023-03-23T16:38:16.210Z,1.60
2023-03-23T16:40:44.896Z,1.98
2023-03-23T16:43:13.027Z,1.33
2023-03-23T16:45:44.180Z,1.45
2023-03-23T16:48:13.279Z,1.50
2023-03-23T16:50:41.378Z,1.40
2023-03-23T16:53:10.041Z,1.40
2023-03-23T16:55:40.630Z,1.50
2023-03-23T16:58:17.116Z,1.70
2023-03-23T17:00:47.979Z,1.63
2023-03-23T17:03:16.376Z,1.50
2023-03-23T17:05:45.019Z,1.40
2023-03-23T17:08:13.287Z,1.90
2023-03-23T17:10:43.663Z,1.65
2023-03-23T17:13:12.152Z,1.75
2023-03-23T17:15:40.916Z,2.40
2023-03-23T17:18:09.281Z,1.73
2023-03-23T17:20:37.248Z,1.88
2023-03-23T17:23:05.881Z,11.27
2023-03-23T17:25:33.598Z,2.30
2023-03-23T17:28:05.851Z,1.50
2023-03-23T17:30:34.910Z,1.63
2023-03-23T17:33:02.828Z,1.70
2023-03-23T17:35:30.626Z,4.28
2023-03-23T17:37:58.454Z,6.65
2023-03-23T17:40:26.606Z,6.10
2023-03-23T17:42:54.352Z,3.78
2023-03-23T17:45:23.420Z,2.88
2023-03-23T17:47:51.106Z,2.65
2023-03-23T17:50:18.862Z,2.10
2023-03-23T17:52:46.544Z,2.30
2023-03-23T17:55:14.220Z,2.20
2023-03-23T17:57:43.340Z,1.67
2023-03-23T18:00:12.689Z,1.75
2023-03-23T18:02:41.945Z,1.63
2023-03-23T18:05:10.681Z,1.35
2023-03-23T18:07:39.579Z,1.50
2023-03-23T18:10:11.701Z,1.33
2023-03-23T18:12:39.840Z,1.90
2023-03-23T18:15:08.869Z,1.88
2023-03-23T18:17:36.681Z,1.83
2023-03-23T18:20:07.355Z,2.10
2023-03-23T18:22:35.420Z,3.05
2023-03-23T18:25:05.016Z,6.03
2023-03-23T18:27:32.847Z,3.80
2023-03-23T18:30:00.842Z,2.35
2023-03-23T18:32:28.637Z,2.38
2023-03-23T18:34:56.442Z,1.88
2023-03-23T18:37:25.508Z,1.77
2023-03-23T18:39:53.550Z,2.03
2023-03-23T18:42:21.304Z,1.92
2023-03-23T18:44:49.047Z,2.10
2023-03-23T18:47:16.678Z,2.20
2023-03-23T18:49:46.288Z,2.75
2023-03-23T18:52:14.062Z,2.50
2023-03-23T18:54:45.197Z,2.65
2023-03-23T18:57:13.109Z,2.88
2023-03-23T18:59:41.134Z,2.40
2023-03-23T19:02:11.502Z,2.78
2023-03-23T19:04:39.388Z,2.30
2023-03-23T19:07:07.616Z,2.72
2023-03-23T19:09:35.801Z,2.85
2023-03-23T19:12:04.973Z,2.72
2023-03-23T19:14:32.601Z,2.58
2023-03-23T19:17:00.320Z,2.50
2023-03-23T19:19:28.328Z,2.63
2023-03-23T19:21:55.961Z,2.63
2023-03-23T19:24:23.787Z,2.90
2023-03-23T19:26:51.730Z,2.70
2023-03-23T19:29:26.070Z,2.85
2023-03-23T19:31:55.807Z,3.15
2023-03-23T19:34:24.632Z,2.70
2023-03-23T19:36:56.263Z,2.50
2023-03-23T19:39:30.870Z,2.47
2023-03-23T19:41:58.802Z,2.80
2023-03-23T19:44:28.857Z,2.22
2023-03-23T19:46:56.965Z,2.55
2023-03-23T19:49:25.413Z,2.58
2023-03-23T19:52:07.167Z,2.45
2023-03-23T19:54:37.195Z,2.58
2023-03-23T19:57:05.354Z,2.47
2023-03-23T19:59:34.816Z,2.83
2023-03-23T20:02:02.756Z,2.60
2023-03-23T20:04:30.540Z,2.78
2023-03-23T20:06:59.022Z,2.67
2023-03-23T20:09:26.757Z,2.97
2023-03-23T20:11:54.437Z,2.88
2023-03-23T20:14:22.093Z,3.38
2023-03-23T20:16:52.772Z,3.50
2023-03-23T20:19:21.330Z,3.40
2023-03-23T20:21:49.121Z,3.83
2023-03-23T20:24:16.947Z,3.42
2023-03-23T20:26:44.757Z,3.47
2023-03-23T20:29:12.896Z,3.75
2023-03-23T20:31:43.117Z,3.80
2023-03-23T20:34:14.858Z,5.20
2023-03-23T20:36:45.093Z,4.00
2023-03-23T20:39:14.990Z,3.90
2023-03-23T20:41:43.572Z,4.47
2023-03-23T20:44:15.469Z,4.25
2023-03-23T20:46:43.774Z,4.38
2023-03-23T20:49:13.144Z,3.95
2023-03-23T20:51:40.960Z,4.18
2023-03-23T20:54:10.042Z,4.90
2023-03-23T20:56:40.277Z,4.80
2023-03-23T20:59:08.273Z,4.53
2023-03-23T21:01:36.942Z,4.57
2023-03-23T21:04:04.867Z,6.80
2023-03-23T21:06:33.971Z,9.20
2023-03-23T21:09:01.616Z,6.50
2023-03-23T21:11:30.056Z,5.32
2023-03-23T21:13:57.777Z,5.28
2023-03-23T21:16:27.346Z,4.78
2023-03-23T21:18:55.206Z,5.05
2023-03-23T21:21:27.185Z,5.22
2023-03-23T21:23:57.289Z,5.07
2023-03-23T21:26:30.772Z,5.20
2023-03-23T21:29:01.034Z,5.43
2023-03-23T21:31:31.571Z,5.38
2023-03-23T21:33:59.908Z,5.07
2023-03-23T21:36:28.436Z,5.60
2023-03-23T21:38:57.847Z,4.22
2023-03-23T21:41:26.995Z,5.07
2023-03-23T21:43:54.659Z,5.40
2023-03-23T21:46:23.254Z,5.13
2023-03-23T21:48:51.901Z,5.72
2023-03-23T21:51:23.965Z,5.88
2023-03-23T21:53:54.153Z,5.35
2023-03-23T21:56:24.548Z,5.57
2023-03-23T21:58:52.889Z,6.18
2023-03-23T22:01:22.129Z,5.95
2023-03-23T22:03:50.614Z,5.63
2023-03-23T22:06:24.798Z,6.15
2023-03-23T22:08:52.798Z,5.30
2023-03-23T22:11:28.294Z,5.90
2023-03-23T22:13:57.591Z,6.97
2023-03-23T22:16:26.538Z,6.18
2023-03-23T22:18:55.625Z,5.97
2023-03-23T22:21:27.160Z,5.63
2023-03-23T22:23:56.722Z,5.10
2023-03-23T22:26:27.611Z,4.90
2023-03-23T22:28:56.182Z,5.15
2023-03-23T22:31:27.374Z,4.70
2023-03-23T22:33:56.447Z,4.13
2023-03-23T22:36:26.205Z,4.38
2023-03-23T22:38:54.996Z,5.00
2023-03-23T22:41:26.326Z,4.80
2023-03-23T22:43:54.705Z,4.75
2023-03-23T22:46:23.347Z,4.68
2023-03-23T22:48:51.207Z,4.70
2023-03-23T22:51:19.774Z,4.55
2023-03-23T22:53:48.280Z,3.88
2023-03-23T22:56:16.643Z,4.13
2023-03-23T22:58:46.300Z,4.60
2023-03-23T23:01:16.327Z,4.45
2023-03-23T23:03:44.362Z,4.20
2023-03-23T23:06:13.101Z,7.53
2023-03-23T23:08:42.209Z,5.90
2023-03-23T23:11:12.081Z,4.32
2023-03-23T23:13:40.819Z,4.93
2023-03-23T23:16:11.871Z,4.15
2023-03-23T23:18:40.438Z,4.22
2023-03-23T23:21:10.283Z,4.45
2023-03-23T23:23:38.227Z,4.03
2023-03-23T23:26:07.126Z,4.38
2023-03-23T23:28:35.364Z,3.90
2023-03-23T23:31:03.816Z,4.35
2023-03-23T23:33:33.261Z,4.40
2023-03-23T23:36:01.591Z,3.85
2023-03-23T23:38:29.417Z,3.63
2023-03-23T23:40:57.521Z,3.45
2023-03-23T23:43:25.485Z,3.72
2023-03-23T23:45:53.570Z,3.30
2023-03-23T23:48:21.601Z,3.67
2023-03-23T23:50:52.856Z,3.80
2023-03-23T23:53:22.861Z,3.70
2023-03-23T23:55:50.873Z,5.68
2023-03-23T23:58:19.031Z,4.20
